Time;durP1;ratioP1;P1;durP2;ratioP2;P2;SDS_P1;SDS_P2;PMS_P1;PMS_P2;Temp;Humidity;BMP_temperature;BMP_pressure;BME280_temperature;BME280_humidity;BME280_pressure;Samples;Min_cycle;Max_cycle;Signal;HPM_P1;HPM_P2
2021/01/24 00:00:23;;;;;;;65.45;29.73;;;1.40;95.00;;;;;;5050339;28;20033;-69
2021/01/24 00:02:49;;;;;;;59.72;28.98;;;1.40;95.00;;;;;;5051856;28;20398;-69
2021/01/24 00:05:14;;;;;;;68.75;28.77;;;1.40;95.00;;;;;;5051311;28;20028;-68
2021/01/24 00:07:40;;;;;;;58.53;25.73;;;1.50;95.00;;;;;;5051345;28;20029;-69
2021/01/24 00:10:07;;;;;;;58.30;25.25;;;1.50;95.00;;;;;;5051790;28;20465;-70
2021/01/24 00:12:32;;;;;;;55.60;25.20;;;1.50;94.90;;;;;;5054442;28;20091;-70
2021/01/24 00:14:58;;;;;;;61.72;27.48;;;1.40;94.90;;;;;;5055311;28;20482;-69
2021/01/24 00:17:24;;;;;;;576.75;220.23;;;1.30;94.80;;;;;;5053498;28;20033;-69
2021/01/24 00:19:49;;;;;;;68.68;28.92;;;1.40;94.90;;;;;;5055025;28;20028;-69
2021/01/24 00:22:15;;;;;;;50.05;23.80;;;1.40;94.90;;;;;;5053595;28;20120;-69
2021/01/24 00:24:40;;;;;;;49.75;22.90;;;1.30;94.80;;;;;;5054734;28;20112;-68
2021/01/24 00:27:06;;;;;;;50.72;24.52;;;1.20;94.80;;;;;;5053127;28;20165;-68
2021/01/24 00:29:32;;;;;;;54.13;23.88;;;1.30;94.90;;;;;;5053384;28;20032;-68
2021/01/24 00:31:57;;;;;;;52.53;24.52;;;1.40;94.90;;;;;;5053269;28;20036;-68
2021/01/24 00:34:23;;;;;;;43.35;22.17;;;1.40;94.90;;;;;;5054650;28;20086;-68
2021/01/24 00:36:49;;;;;;;45.95;22.85;;;1.40;94.80;;;;;;5054074;28;20047;-69
2021/01/24 00:39:14;;;;;;;54.63;25.00;;;1.30;94.80;;;;;;5054734;28;20239;-69
2021/01/24 00:41:40;;;;;;;63.88;27.13;;;1.40;94.90;;;;;;5054530;28;20049;-69
2021/01/24 00:44:06;;;;;;;54.35;24.60;;;1.40;94.90;;;;;;5054244;28;20500;-69
2021/01/24 00:46:31;;;;;;;56.22;24.35;;;1.30;94.70;;;;;;5054167;28;20040;-69
2021/01/24 00:48:57;;;;;;;58.75;27.45;;;1.20;94.70;;;;;;5054120;28;20040;-69
2021/01/24 00:51:23;;;;;;;53.33;24.15;;;1.10;94.70;;;;;;5053714;28;20391;-69
2021/01/24 00:53:49;;;;;;;55.83;24.60;;;1.10;94.80;;;;;;5053390;28;20025;-69
2021/01/24 00:56:15;;;;;;;61.40;25.75;;;1.30;94.90;;;;;;5052970;28;20037;-68
2021/01/24 00:58:41;;;;;;;52.47;24.17;;;1.30;94.90;;;;;;5054339;28;20421;-68
2021/01/24 01:01:07;;;;;;;54.80;24.63;;;1.30;94.90;;;;;;5054138;28;20033;-68
2021/01/24 01:03:32;;;;;;;56.65;25.27;;;1.10;94.70;;;;;;5054138;28;20095;-68
2021/01/24 01:06:00;;;;;;;57.20;24.67;;;1.10;94.90;;;;;;5054100;28;20554;-69
2021/01/24 01:08:26;;;;;;;53.67;22.90;;;1.10;94.90;;;;;;5051929;28;20036;-67
2021/01/24 01:10:51;;;;;;;52.95;23.42;;;1.10;94.80;;;;;;5053795;28;20025;-68
2021/01/24 01:13:17;;;;;;;48.50;23.05;;;1.00;94.80;;;;;;5052692;28;20120;-68
2021/01/24 01:15:42;;;;;;;51.42;22.30;;;1.00;94.90;;;;;;5053841;28;20060;-68
2021/01/24 01:18:08;;;;;;;51.65;23.30;;;1.00;94.90;;;;;;5053310;28;20057;-67
2021/01/24 01:20:34;;;;;;;49.97;23.50;;;1.00;94.80;;;;;;5053570;28;20039;-68
2021/01/24 01:23:00;;;;;;;53.53;23.75;;;1.00;94.90;;;;;;5053531;28;20033;-67
2021/01/24 01:25:25;;;;;;;49.83;22.63;;;0.90;94.80;;;;;;5053497;28;20442;-68
2021/01/24 01:27:51;;;;;;;49.45;24.00;;;0.80;94.80;;;;;;5051744;28;20052;-69
2021/01/24 01:30:17;;;;;;;54.83;22.95;;;0.80;94.80;;;;;;5053602;28;20036;-68
2021/01/24 01:32:43;;;;;;;59.50;24.77;;;0.80;94.90;;;;;;5053733;28;20029;-68
2021/01/24 01:35:09;;;;;;;57.92;24.58;;;0.80;94.90;;;;;;5053480;28;20033;-69
2021/01/24 01:37:35;;;;;;;56.95;24.05;;;0.70;94.90;;;;;;5069736;22;20040;-69
2021/01/24 01:40:01;;;;;;;53.03;24.48;;;0.70;95.00;;;;;;5071813;28;20485;-70
2021/01/24 01:42:27;;;;;;;52.80;23.98;;;0.80;95.00;;;;;;5071680;28;20028;-70
2021/01/24 01:44:52;;;;;;;52.33;24.15;;;0.80;95.00;;;;;;5071846;28;20401;-70
2021/01/24 01:47:22;;;;;;;53.95;23.13;;;0.80;95.00;;;;;;5072765;28;20025;-70
2021/01/24 01:49:55;;;;;;;51.28;23.33;;;0.80;95.00;;;;;;5051657;28;20133;-70
2021/01/24 01:52:24;;;;;;;60.08;25.20;;;0.70;94.90;;;;;;5051917;28;20108;-70
2021/01/24 01:54:51;;;;;;;51.30;23.10;;;0.70;95.10;;;;;;5051570;28;20029;-68
2021/01/24 01:57:16;;;;;;;51.25;22.17;;;0.80;95.00;;;;;;5051367;28;20051;-70
2021/01/24 01:59:42;;;;;;;51.90;23.00;;;0.80;95.00;;;;;;5052781;28;20029;-69
2021/01/24 02:02:43;;;;;;;59.65;24.30;;;0.70;95.00;;;;;;5052916;28;20029;-68
2021/01/24 02:05:21;;;;;;;46.58;17.48;;;0.70;95.00;;;;;;5029041;28;20114;-70
2021/01/24 02:08:20;;;;;;;51.58;23.15;;;0.70;95.10;;;;;;5052407;28;20021;-70
2021/01/24 02:10:57;;;;;;;52.70;22.70;;;0.70;95.10;;;;;;5051411;28;20031;-69
2021/01/24 02:13:38;;;;;;;52.67;22.75;;;0.90;95.20;;;;;;5052787;28;20017;-70
2021/01/24 02:16:10;;;;;;;42.90;18.05;;;0.90;95.10;;;;;;5051162;28;20389;-69
2021/01/24 02:18:36;;;;;;;;;;;0.90;95.10;;;;;;5053085;28;20032;-70
2021/01/24 02:21:31;;;;;;;47.22;21.45;;;1.00;95.10;;;;;;5052689;28;19909;-70
2021/01/24 02:24:03;;;;;;;48.70;21.63;;;1.00;95.00;;;;;;5051596;28;20048;-70
2021/01/24 02:26:34;;;;;;;45.28;20.10;;;0.90;94.80;;;;;;5050669;28;20025;-70
2021/01/24 02:29:21;;;;;;;43.40;21.20;;;0.80;94.80;;;;;;5051560;28;20025;-70
2021/01/24 02:31:48;;;;;;;41.55;20.58;;;0.80;94.70;;;;;;5051065;28;20053;-70
2021/01/24 02:34:16;;;;;;;49.72;21.60;;;0.70;94.70;;;;;;5050387;28;20070;-71
2021/01/24 02:36:43;;;;;;;47.33;20.65;;;0.70;94.60;;;;;;5032395;28;20104;-70
2021/01/24 02:39:10;;;;;;;46.35;21.15;;;0.70;94.70;;;;;;5030883;28;20152;-71
2021/01/24 02:41:37;;;;;;;39.90;20.20;;;0.70;94.80;;;;;;5032348;28;20029;-70
2021/01/24 02:44:03;;;;;;;49.45;20.80;;;0.70;94.80;;;;;;5030830;28;20124;-71
2021/01/24 02:46:30;;;;;;;46.97;21.20;;;0.60;94.70;;;;;;5032144;28;20121;-71
2021/01/24 02:48:56;;;;;;;47.58;22.38;;;0.60;94.80;;;;;;5043558;28;20502;-71
2021/01/24 02:51:23;;;;;;;48.65;22.52;;;0.60;94.90;;;;;;5052049;28;20033;-72
2021/01/24 02:53:49;;;;;;;48.28;21.50;;;0.60;94.80;;;;;;5052071;28;20040;-70
2021/01/24 02:56:18;;;;;;;56.67;23.88;;;0.60;94.80;;;;;;5048927;28;20035;-71
2021/01/24 02:58:44;;;;;;;47.05;21.63;;;0.60;94.80;;;;;;5050491;28;20025;-71
2021/01/24 03:01:12;;;;;;;48.75;23.70;;;0.50;94.80;;;;;;5051825;28;20017;-71
2021/01/24 03:03:38;;;;;;;49.50;24.13;;;0.60;94.90;;;;;;5050667;28;20056;-72
2021/01/24 03:06:04;;;;;;;50.45;23.38;;;0.50;94.80;;;;;;5051496;28;20056;-71
2021/01/24 03:08:29;;;;;;;50.08;24.75;;;0.50;94.80;;;;;;5050355;28;20021;-72
2021/01/24 03:10:55;;;;;;;49.13;23.42;;;0.40;94.80;;;;;;5051543;28;20028;-71
2021/01/24 03:13:30;;;;;;;53.45;24.65;;;0.30;94.90;;;;;;5051534;28;20025;-72
2021/01/24 03:15:58;;;;;;;54.15;24.25;;;0.30;94.90;;;;;;5050509;28;20037;-72
2021/01/24 03:18:27;;;;;;;54.22;24.17;;;0.30;95.00;;;;;;5051325;28;20036;-71
2021/01/24 03:20:54;;;;;;;59.03;25.45;;;0.30;95.10;;;;;;5051656;28;20478;-72
2021/01/24 03:23:25;;;;;;;59.83;25.63;;;0.30;95.10;;;;;;5051664;28;20033;-71
2021/01/24 03:25:51;;;;;;;58.40;23.27;;;0.30;95.10;;;;;;5050596;28;20021;-71
2021/01/24 03:28:18;;;;;;;59.55;25.33;;;0.20;95.10;;;;;;5051444;28;20298;-72
2021/01/24 03:30:43;;;;;;;62.03;25.35;;;0.30;95.10;;;;;;5051414;28;20032;-70
2021/01/24 03:33:12;;;;;;;54.08;25.35;;;0.30;95.20;;;;;;5051380;28;20025;-71
2021/01/24 03:35:38;;;;;;;67.60;26.75;;;0.20;95.20;;;;;;5051410;28;20036;-70
2021/01/24 03:38:03;;;;;;;67.47;26.15;;;0.20;95.20;;;;;;5051056;28;20029;-71
2021/01/24 03:40:29;;;;;;;59.83;25.98;;;0.20;95.20;;;;;;5051729;28;20026;-71
2021/01/24 03:42:55;;;;;;;72.40;27.45;;;0.20;95.20;;;;;;5051662;28;20061;-71
2021/01/24 03:45:20;;;;;;;70.93;28.73;;;0.10;95.20;;;;;;5049997;28;20025;-70
2021/01/24 03:47:46;;;;;;;67.32;27.60;;;0.10;95.30;;;;;;5053929;28;20482;-72
2021/01/24 03:50:12;;;;;;;79.97;29.08;;;0.20;95.30;;;;;;5053897;28;20033;-71
2021/01/24 03:52:37;;;;;;;80.38;30.17;;;0.20;95.30;;;;;;5053777;28;20021;-71
2021/01/24 03:55:04;;;;;;;78.28;28.98;;;0.30;95.30;;;;;;5054026;28;20025;-71
2021/01/24 03:57:29;;;;;;;72.32;26.80;;;0.20;95.20;;;;;;5053757;28;20085;-71
2021/01/24 03:59:55;;;;;;;78.22;26.80;;;0.20;95.20;;;;;;5055171;28;20032;-71
2021/01/24 04:02:21;;;;;;;78.20;27.10;;;0.10;95.20;;;;;;5055233;28;20028;-71
2021/01/24 04:04:47;;;;;;;84.72;27.77;;;0.10;95.20;;;;;;5055015;28;20032;-71
2021/01/24 04:07:14;;;;;;;76.18;27.23;;;0.00;95.20;;;;;;5053488;28;20025;-71
2021/01/24 04:09:40;;;;;;;77.85;27.83;;;0.00;95.20;;;;;;5054930;28;20013;-71
2021/01/24 04:12:06;;;;;;;73.85;27.67;;;0.00;95.20;;;;;;5053780;28;20505;-71
2021/01/24 04:14:34;;;;;;;58.28;25.27;;;0.00;95.20;;;;;;5053594;28;20029;-71
2021/01/24 04:17:00;;;;;;;67.53;26.83;;;0.00;95.20;;;;;;5054666;28;20075;-71
2021/01/24 04:19:28;;;;;;;80.63;29.58;;;0.00;95.20;;;;;;5054996;28;20418;-71
2021/01/24 04:21:54;;;;;;;92.03;30.42;;;0.00;95.30;;;;;;5054655;28;20032;-72
2021/01/24 04:24:19;;;;;;;73.47;27.50;;;0.00;95.20;;;;;;5053418;28;20021;-71
2021/01/24 04:26:45;;;;;;;70.30;26.65;;;-3276.70;95.30;;;;;;5054578;28;20025;-71
2021/01/24 04:29:11;;;;;;;72.47;27.48;;;-3276.70;95.30;;;;;;5054875;28;20068;-70
2021/01/24 04:31:36;;;;;;;69.55;27.83;;;-3276.70;95.30;;;;;;5054450;28;20017;-71
2021/01/24 04:34:02;;;;;;;87.43;29.42;;;-3276.70;95.30;;;;;;5053176;28;20082;-71
2021/01/24 04:36:28;;;;;;;71.13;27.60;;;-3276.70;95.30;;;;;;5054021;28;20402;-71
2021/01/24 04:38:56;;;;;;;73.35;27.35;;;-3276.70;95.30;;;;;;5054151;28;20041;-71
2021/01/24 04:41:22;;;;;;;71.90;26.77;;;-3276.60;95.30;;;;;;5054356;28;20025;-71
2021/01/24 04:43:48;;;;;;;73.38;27.48;;;-3276.60;95.30;;;;;;5054316;28;20040;-71
2021/01/24 04:46:14;;;;;;;80.88;30.17;;;0.00;95.40;;;;;;5053987;28;20463;-71
2021/01/24 04:48:40;;;;;;;74.72;28.92;;;-3276.70;95.30;;;;;;5054169;28;20102;-72
2021/01/24 04:51:06;;;;;;;71.65;28.92;;;0.00;95.30;;;;;;5054097;28;20025;-71
2021/01/24 04:53:36;;;;;;;83.78;30.65;;;0.00;95.30;;;;;;5054278;28;20029;-72
2021/01/24 04:56:01;;;;;;;77.60;29.33;;;-3276.70;95.30;;;;;;5054359;28;20026;-70
2021/01/24 04:58:29;;;;;;;73.85;29.83;;;-3276.70;95.30;;;;;;5052743;28;20021;-70
2021/01/24 05:00:58;;;;;;;87.93;32.97;;;0.00;95.40;;;;;;5052699;28;20501;-70
2021/01/24 05:03:23;;;;;;;90.70;33.00;;;0.00;95.40;;;;;;5053012;28;20024;-72
2021/01/24 05:05:49;;;;;;;89.85;32.20;;;0.00;95.40;;;;;;5053867;28;20048;-70
2021/01/24 05:08:16;;;;;;;84.82;30.73;;;0.00;95.30;;;;;;5052517;28;20017;-72
2021/01/24 05:10:45;;;;;;;89.05;31.17;;;0.00;95.30;;;;;;5054172;28;20033;-70
2021/01/24 05:13:12;;;;;;;66.90;27.90;;;0.00;95.30;;;;;;5054365;28;20017;-71
2021/01/24 05:15:37;;;;;;;73.00;27.65;;;0.00;95.30;;;;;;5053998;28;20025;-72
2021/01/24 05:18:04;;;;;;;86.75;31.65;;;0.00;95.30;;;;;;5053426;28;20028;-72
2021/01/24 05:20:31;;;;;;;89.35;31.25;;;0.00;95.30;;;;;;5052552;28;20507;-71
2021/01/24 05:23:01;;;;;;;81.43;28.23;;;0.00;95.30;;;;;;5053740;28;20093;-71
2021/01/24 05:25:30;;;;;;;66.88;27.58;;;0.00;95.30;;;;;;5053490;28;20021;-71
2021/01/24 05:27:56;;;;;;;89.53;31.20;;;0.00;95.30;;;;;;5035605;28;20025;-70
2021/01/24 05:30:32;;;;;;;74.72;29.13;;;0.00;95.30;;;;;;5053491;28;20033;-71
2021/01/24 05:33:00;;;;;;;90.38;31.38;;;0.00;95.30;;;;;;5052450;28;20402;-71
2021/01/24 05:35:27;;;;;;;95.22;31.73;;;0.00;95.20;;;;;;5053345;28;20538;-71
2021/01/24 05:37:52;;;;;;;87.90;28.90;;;0.00;95.20;;;;;;5051728;28;20409;-71
2021/01/24 05:40:18;;;;;;;82.95;29.45;;;0.00;95.20;;;;;;5053011;28;20025;-69
2021/01/24 05:42:45;;;;;;;81.85;28.67;;;0.00;95.20;;;;;;5053259;28;20079;-72
2021/01/24 05:45:13;;;;;;;91.20;31.10;;;0.00;95.30;;;;;;5052760;28;20036;-69
2021/01/24 05:47:43;;;;;;;75.55;28.17;;;0.00;95.30;;;;;;5052767;28;20021;-71
2021/01/24 05:50:14;;;;;;;81.68;28.75;;;0.00;95.20;;;;;;5051863;28;20490;-71
2021/01/24 05:52:48;;;;;;;74.57;28.05;;;0.00;95.20;;;;;;5053178;28;20029;-69
2021/01/24 05:55:36;;;;;;;74.03;27.10;;;0.00;95.20;;;;;;5053041;28;20035;-71
2021/01/24 05:58:25;;;;;;;88.13;27.45;;;-3276.70;95.20;;;;;;5051503;28;20032;-71
2021/01/24 06:00:52;;;;;;;84.43;31.02;;;-3276.70;95.10;;;;;;5052879;28;20029;-72
2021/01/24 06:03:19;;;;;;;88.13;31.48;;;-3276.60;95.10;;;;;;5052874;28;20478;-71
2021/01/24 06:05:45;;;;;;;89.63;31.92;;;-3276.50;95.10;;;;;;5051804;28;20048;-71
2021/01/24 06:08:14;;;;;;;63.53;24.63;;;-3276.50;95.10;;;;;;5052399;28;20450;-72
2021/01/24 06:10:40;;;;;;;74.28;26.98;;;-3276.50;95.20;;;;;;5052348;28;20079;-71
2021/01/24 06:13:12;;;;;;;59.83;25.88;;;-3276.50;95.20;;;;;;5052671;28;20394;-70
2021/01/24 06:15:42;;;;;;;74.60;25.10;;;-3276.40;95.10;;;;;;5052674;28;20021;-69
2021/01/24 06:18:16;;;;;;;55.75;22.98;;;-3276.30;95.10;;;;;;5052357;28;20025;-71
2021/01/24 06:20:48;;;;;;;79.85;26.92;;;-3276.40;95.10;;;;;;5052415;28;20112;-72
2021/01/24 06:23:17;;;;;;;72.05;25.80;;;-3276.30;95.10;;;;;;5051503;28;20033;-71
2021/01/24 06:25:45;;;;;;;78.50;25.60;;;-3276.30;95.10;;;;;;5052333;28;20028;-71
2021/01/24 06:28:15;;;;;;;83.22;28.88;;;-3276.30;95.20;;;;;;5050737;28;20430;-71
2021/01/24 06:30:44;;;;;;;104.15;31.10;;;-3276.40;95.20;;;;;;5051186;28;20032;-73
2021/01/24 06:33:24;;;;;;;66.93;25.10;;;-3276.40;95.20;;;;;;5052152;28;20412;-71
2021/01/24 06:36:01;;;;;;;78.68;26.70;;;-3276.40;95.10;;;;;;5052366;28;20025;-72
2021/01/24 06:38:53;;;;;;;106.20;30.65;;;-3276.40;95.20;;;;;;5050632;28;20037;-70
2021/01/24 06:41:42;;;;;;;121.82;32.08;;;-3276.40;95.20;;;;;;5052085;28;20107;-71
2021/01/24 06:44:37;;;;;;;87.15;28.95;;;-3276.50;95.20;;;;;;5052108;28;20155;-70
2021/01/24 06:47:08;;;;;;;72.53;26.92;;;-3276.50;95.20;;;;;;5050958;28;20525;-72
2021/01/24 06:49:43;;;;;;;99.40;31.52;;;-3276.50;95.20;;;;;;5051952;28;20046;-70
2021/01/24 06:52:17;;;;;;;514.55;128.50;;;-3276.60;95.20;;;;;;5051982;28;20375;-69
2021/01/24 06:54:43;;;;;;;90.95;30.23;;;-3276.60;95.20;;;;;;5050480;28;20099;-69
2021/01/24 06:57:09;;;;;;;121.68;32.63;;;-3276.70;95.30;;;;;;5051616;28;20445;-70
2021/01/24 06:59:35;;;;;;;94.40;31.20;;;-3276.70;95.30;;;;;;5051616;28;20031;-70
2021/01/24 07:02:19;;;;;;;105.80;30.73;;;-3276.60;95.30;;;;;;5050310;28;20025;-69
2021/01/24 07:05:17;;;;;;;100.78;31.85;;;-3276.70;95.30;;;;;;5051708;28;20037;-71
2021/01/24 07:07:52;;;;;;;103.20;30.73;;;0.00;95.30;;;;;;5051541;28;20557;-71
2021/01/24 07:10:37;;;;;;;81.82;26.50;;;0.00;95.40;;;;;;5051769;28;20021;-72
2021/01/24 07:13:24;;;;;;;102.18;30.33;;;0.00;95.30;;;;;;5050366;28;20021;-72
2021/01/24 07:16:01;;;;;;;98.65;29.38;;;0.10;95.30;;;;;;5051594;28;20025;-71
2021/01/24 07:18:37;;;;;;;110.07;30.20;;;0.10;95.30;;;;;;5051634;28;20486;-71
2021/01/24 07:21:03;;;;;;;137.32;33.90;;;0.20;95.30;;;;;;5049913;28;20033;-69
2021/01/24 07:23:31;;;;;;;117.10;31.98;;;0.20;95.30;;;;;;5050171;28;20037;-71
2021/01/24 07:25:56;;;;;;;106.90;31.17;;;0.20;95.30;;;;;;5051653;28;20402;-72
2021/01/24 07:28:23;;;;;;;1306.65;464.33;;;0.30;95.30;;;;;;5050032;28;20029;-70
2021/01/24 07:30:48;;;;;;;421.02;133.40;;;0.30;95.20;;;;;;5050252;28;20032;-72
2021/01/24 07:33:14;;;;;;;181.00;46.80;;;0.50;95.30;;;;;;5051456;28;20025;-72
2021/01/24 07:35:42;;;;;;;218.52;53.05;;;0.70;95.30;;;;;;5050180;28;20040;-73
2021/01/24 07:38:08;;;;;;;239.48;51.28;;;0.80;95.30;;;;;;5073307;22;20093;-65
2021/01/24 07:40:34;;;;;;;114.90;32.10;;;0.80;95.20;;;;;;5049347;28;20029;-66
2021/01/24 07:42:59;;;;;;;123.50;31.42;;;0.80;95.10;;;;;;5050942;28;20017;-66
2021/01/24 07:45:25;;;;;;;90.28;27.67;;;0.70;95.00;;;;;;5050408;28;20064;-66
2021/01/24 07:47:54;;;;;;;127.70;33.20;;;0.70;95.00;;;;;;5051279;28;20028;-66
2021/01/24 07:50:20;;;;;;;134.32;34.20;;;0.60;94.90;;;;;;5050339;28;20021;-66
2021/01/24 07:52:49;;;;;;;475.08;152.90;;;0.70;95.00;;;;;;5051048;28;20515;-66
2021/01/24 07:55:15;;;;;;;252.75;76.60;;;0.70;94.90;;;;;;5050139;28;20113;-66
2021/01/24 07:57:40;;;;;;;112.28;34.83;;;0.80;94.90;;;;;;5051118;28;20048;-66
2021/01/24 08:00:07;;;;;;;118.40;35.63;;;0.90;95.00;;;;;;5049878;28;20037;-66
2021/01/24 08:02:35;;;;;;;94.07;33.22;;;1.00;95.00;;;;;;5050970;28;20386;-66
2021/01/24 08:05:01;;;;;;;118.13;32.30;;;1.10;95.00;;;;;;5049658;28;20033;-66
2021/01/24 08:07:30;;;;;;;82.97;27.38;;;1.10;94.90;;;;;;5050690;28;20025;-66
2021/01/24 08:09:57;;;;;;;103.65;29.95;;;1.20;94.90;;;;;;5051111;28;20021;-66
2021/01/24 08:12:25;;;;;;;85.68;27.48;;;1.30;94.90;;;;;;5049646;28;20174;-66
2021/01/24 08:14:51;;;;;;;66.68;24.77;;;1.30;94.90;;;;;;5051039;28;20029;-66
2021/01/24 08:17:18;;;;;;;58.20;21.50;;;1.30;94.90;;;;;;5049549;28;20398;-66
2021/01/24 08:19:45;;;;;;;61.47;22.83;;;1.20;94.50;;;;;;5049506;28;20383;-67
2021/01/24 08:22:11;;;;;;;52.55;23.00;;;1.00;94.30;;;;;;5049047;28;20421;-66
2021/01/24 08:24:37;;;;;;;43.90;20.38;;;1.00;94.30;;;;;;5050831;28;20033;-65
2021/01/24 08:27:04;;;;;;;54.80;22.52;;;0.90;94.10;;;;;;5049192;28;20121;-66
2021/01/24 08:29:34;;;;;;;58.00;23.45;;;0.90;93.90;;;;;;5050746;28;20044;-67
2021/01/24 08:32:03;;;;;;;52.38;20.95;;;0.90;94.00;;;;;;5050481;28;20438;-66
2021/01/24 08:34:30;;;;;;;58.83;23.40;;;1.10;94.20;;;;;;5058730;28;20036;-67
2021/01/24 08:36:56;;;;;;;68.07;23.35;;;1.20;94.20;;;;;;5053080;28;20017;-67
2021/01/24 08:39:23;;;;;;;58.85;23.17;;;1.30;94.40;;;;;;5054018;28;20028;-66
2021/01/24 08:41:53;;;;;;;63.25;23.98;;;1.50;94.50;;;;;;5056218;28;20017;-66
2021/01/24 08:44:19;;;;;;;48.20;21.38;;;1.60;94.50;;;;;;5054953;28;20017;-67
2021/01/24 08:46:49;;;;;;;48.92;21.83;;;1.60;94.30;;;;;;5053994;28;20567;-66
2021/01/24 08:49:27;;;;;;;47.33;21.52;;;1.60;94.10;;;;;;5054150;28;20458;-66
2021/01/24 08:51:54;;;;;;;43.95;19.00;;;1.60;94.10;;;;;;5054267;28;20461;-67
2021/01/24 08:54:29;;;;;;;50.65;20.58;;;1.70;94.00;;;;;;5054057;28;20074;-66
2021/01/24 08:57:11;;;;;;;54.50;24.73;;;1.70;94.00;;;;;;5053542;28;20025;-67
2021/01/24 08:59:38;;;;;;;63.58;28.70;;;1.60;93.60;;;;;;5054145;28;20503;-68
2021/01/24 09:02:06;;;;;;;70.40;30.60;;;1.70;93.80;;;;;;5054113;28;20032;-67
2021/01/24 09:04:35;;;;;;;70.07;33.13;;;1.60;93.70;;;;;;5053944;28;20024;-66
2021/01/24 09:07:03;;;;;;;77.43;33.50;;;1.50;93.10;;;;;;5053703;28;20056;-66
2021/01/24 09:09:30;;;;;;;74.40;32.45;;;1.40;93.30;;;;;;5052246;28;20029;-67
2021/01/24 09:11:56;;;;;;;68.15;29.55;;;1.40;93.50;;;;;;5053539;28;20040;-66
2021/01/24 09:14:24;;;;;;;78.03;31.85;;;1.30;93.10;;;;;;5054026;28;20478;-66
2021/01/24 09:17:03;;;;;;;77.57;33.00;;;1.40;93.50;;;;;;5054101;28;20033;-66
2021/01/24 09:19:29;;;;;;;63.22;30.60;;;1.60;93.90;;;;;;5054095;28;20379;-64
2021/01/24 09:21:55;;;;;;;67.60;30.52;;;1.50;93.40;;;;;;5052852;28;20390;-66
2021/01/24 09:24:21;;;;;;;71.60;32.22;;;1.40;93.10;;;;;;5053073;28;20044;-66
2021/01/24 09:26:47;;;;;;;112.75;44.78;;;1.40;93.30;;;;;;5052949;28;20033;-66
2021/01/24 09:29:14;;;;;;;78.28;34.35;;;1.60;93.60;;;;;;5053222;28;20475;-66
2021/01/24 09:31:41;;;;;;;81.40;35.13;;;1.60;93.30;;;;;;5053538;28;20028;-67
2021/01/24 09:34:07;;;;;;;66.60;31.30;;;1.70;93.80;;;;;;5053273;28;20021;-67
2021/01/24 09:36:33;;;;;;;76.80;32.70;;;1.70;93.50;;;;;;5072376;28;20536;-68
2021/01/24 09:38:59;;;;;;;83.60;34.33;;;1.80;93.70;;;;;;5072064;28;20506;-66
2021/01/24 09:41:26;;;;;;;75.97;32.80;;;2.00;94.10;;;;;;5073040;28;20028;-66
2021/01/24 09:43:51;;;;;;;77.35;32.65;;;2.00;94.00;;;;;;5073163;28;20028;-69
2021/01/24 09:46:17;;;;;;;61.35;29.40;;;2.00;93.80;;;;;;5071740;28;20573;-68
2021/01/24 09:48:43;;;;;;;74.18;31.48;;;2.00;93.70;;;;;;5065735;28;20072;-68
2021/01/24 09:51:09;;;;;;;56.00;25.80;;;2.10;94.00;;;;;;5053203;28;20386;-67
2021/01/24 09:53:41;;;;;;;47.55;25.33;;;2.30;94.20;;;;;;5051974;28;20061;-66
2021/01/24 09:56:07;;;;;;;46.38;24.42;;;2.40;94.00;;;;;;5036156;28;20479;-66
2021/01/24 09:58:33;;;;;;;1571.40;733.90;;;2.40;93.90;;;;;;5052501;28;20029;-66
2021/01/24 10:00:59;;;;;;;1654.95;696.95;;;2.50;94.00;;;;;;5053298;28;20085;-66
2021/01/24 10:03:25;;;;;;;65.07;35.95;;;2.50;93.90;;;;;;5052690;28;20028;-66
2021/01/24 10:05:51;;;;;;;54.13;25.95;;;2.50;93.60;;;;;;5052460;28;20035;-66
2021/01/24 10:08:17;;;;;;;53.30;24.20;;;2.40;93.60;;;;;;5052159;28;20021;-67
2021/01/24 10:10:45;;;;;;;45.88;23.60;;;2.50;93.90;;;;;;5047042;28;20379;-66
2021/01/24 10:13:14;;;;;;;47.25;22.42;;;2.60;93.80;;;;;;5044851;28;20025;-67
2021/01/24 10:15:40;;;;;;;53.97;23.27;;;2.70;94.00;;;;;;5049735;28;20125;-66
2021/01/24 10:18:06;;;;;;;34.15;20.35;;;2.80;94.10;;;;;;5045976;28;20017;-67
2021/01/24 10:20:33;;;;;;;40.88;21.45;;;2.70;93.90;;;;;;5049145;28;20391;-68
2021/01/24 10:22:59;;;;;;;35.88;19.77;;;2.70;93.60;;;;;;5049487;28;20106;-68
2021/01/24 10:25:24;;;;;;;39.63;20.02;;;2.60;93.30;;;;;;5050923;28;20497;-68
2021/01/24 10:27:50;;;;;;;38.58;19.98;;;2.60;93.50;;;;;;5051515;28;20551;-66
2021/01/24 10:30:16;;;;;;;46.67;21.00;;;2.60;93.50;;;;;;5051760;28;20548;-66
2021/01/24 10:32:44;;;;;;;956.15;467.38;;;2.50;93.20;;;;;;5052066;28;20052;-66
2021/01/24 10:35:10;;;;;;;59.65;33.13;;;2.40;93.50;;;;;;5059156;28;20486;-66
2021/01/24 10:37:36;;;;;;;49.53;26.20;;;2.30;93.30;;;;;;5055611;28;20029;-67
2021/01/24 10:40:03;;;;;;;54.75;25.55;;;2.10;92.90;;;;;;5050450;28;20032;-67
2021/01/24 10:42:29;;;;;;;1502.25;604.80;;;2.10;93.30;;;;;;5050130;28;20028;-69
2021/01/24 10:44:54;;;;;;;65.43;32.50;;;2.20;93.60;;;;;;5050798;28;20397;-68
2021/01/24 10:47:20;;;;;;;47.65;24.38;;;2.10;93.40;;;;;;5051292;28;20036;-67
2021/01/24 10:49:45;;;;;;;58.38;24.83;;;2.10;93.50;;;;;;5051681;28;20017;-67
2021/01/24 10:52:11;;;;;;;59.75;25.92;;;2.10;93.60;;;;;;5051941;28;20092;-67
2021/01/24 10:54:37;;;;;;;66.18;27.40;;;2.00;93.20;;;;;;5046791;28;20024;-67
2021/01/24 10:57:03;;;;;;;55.90;24.33;;;2.00;93.70;;;;;;5042416;28;20394;-67
2021/01/24 10:59:29;;;;;;;52.15;25.33;;;1.90;93.40;;;;;;5050090;28;20438;-66
2021/01/24 11:01:54;;;;;;;63.22;25.48;;;1.90;93.60;;;;;;5049046;28;20522;-67
2021/01/24 11:04:20;;;;;;;59.35;26.00;;;1.90;93.60;;;;;;5050222;28;20056;-67
2021/01/24 11:06:46;;;;;;;56.25;24.02;;;1.70;93.30;;;;;;5051612;28;20025;-67
2021/01/24 11:09:12;;;;;;;66.45;24.73;;;1.60;93.60;;;;;;5047102;28;20436;-67
2021/01/24 11:11:38;;;;;;;51.22;24.05;;;1.60;93.80;;;;;;5047982;28;20061;-66
2021/01/24 11:14:05;;;;;;;58.10;27.10;;;1.60;93.80;;;;;;5050843;28;20056;-66
2021/01/24 11:16:31;;;;;;;70.60;28.98;;;1.70;94.20;;;;;;5049044;28;20032;-67
2021/01/24 11:18:57;;;;;;;72.57;29.90;;;1.80;94.40;;;;;;5050696;28;20032;-67
2021/01/24 11:21:24;;;;;;;58.33;27.42;;;1.90;94.40;;;;;;5049215;28;20028;-67
2021/01/24 11:23:50;;;;;;;59.85;27.85;;;2.00;94.40;;;;;;5047828;28;20119;-66
2021/01/24 11:26:16;;;;;;;58.58;26.58;;;2.00;94.40;;;;;;5047886;28;20040;-67
2021/01/24 11:28:41;;;;;;;55.17;23.73;;;2.10;94.40;;;;;;5050034;28;20027;-66
2021/01/24 11:31:07;;;;;;;51.58;21.77;;;2.10;94.30;;;;;;5050805;28;20079;-66
2021/01/24 11:33:33;;;;;;;62.45;25.50;;;2.10;94.30;;;;;;5050553;28;20052;-66
2021/01/24 11:35:58;;;;;;;55.83;23.55;;;2.10;94.20;;;;;;5051080;28;20510;-67
2021/01/24 11:38:24;;;;;;;54.13;24.48;;;2.00;94.20;;;;;;5044521;28;20033;-67
2021/01/24 11:40:49;;;;;;;42.50;22.20;;;2.00;94.00;;;;;;5050832;28;20028;-68
2021/01/24 11:43:16;;;;;;;56.00;25.73;;;2.00;94.00;;;;;;5050978;28;20482;-67
2021/01/24 11:45:41;;;;;;;55.45;25.48;;;2.00;94.00;;;;;;5051059;28;20055;-67
2021/01/24 11:48:07;;;;;;;50.83;23.73;;;1.90;94.00;;;;;;5052211;28;20166;-66
2021/01/24 11:50:33;;;;;;;66.88;28.60;;;1.70;93.70;;;;;;5051606;28;20029;-68
2021/01/24 11:52:59;;;;;;;64.40;29.17;;;1.60;93.70;;;;;;5051096;28;20386;-66
2021/01/24 11:55:27;;;;;;;63.58;29.17;;;1.40;93.70;;;;;;5051275;28;20112;-66
2021/01/24 11:57:52;;;;;;;70.68;31.13;;;1.40;94.00;;;;;;5050774;28;20484;-67
2021/01/24 12:00:18;;;;;;;71.75;30.17;;;1.30;94.20;;;;;;5050841;28;20036;-66
2021/01/24 12:02:44;;;;;;;67.45;30.25;;;1.60;94.50;;;;;;5050931;28;20025;-67
2021/01/24 12:05:12;;;;;;;61.03;27.50;;;1.70;94.50;;;;;;5050898;28;20027;-66
2021/01/24 12:07:38;;;;;;;65.35;28.80;;;1.80;94.40;;;;;;5051652;28;20078;-69
2021/01/24 12:10:04;;;;;;;62.78;27.98;;;1.70;94.20;;;;;;5054571;28;20483;-67
2021/01/24 12:12:30;;;;;;;51.58;25.27;;;1.60;94.20;;;;;;5054946;28;20017;-67
2021/01/24 12:14:55;;;;;;;51.53;26.42;;;1.60;94.10;;;;;;5053413;28;20035;-66
2021/01/24 12:17:24;;;;;;;61.72;27.25;;;1.60;94.20;;;;;;5049042;28;20600;-67
2021/01/24 12:19:53;;;;;;;65.95;29.58;;;1.60;94.10;;;;;;5054391;28;20017;-67
2021/01/24 12:22:19;;;;;;;69.60;30.45;;;1.60;94.30;;;;;;5054344;28;20024;-67
2021/01/24 12:24:44;;;;;;;71.10;31.70;;;1.70;94.40;;;;;;5054219;28;20099;-68
2021/01/24 12:27:10;;;;;;;62.10;28.92;;;1.70;94.20;;;;;;5053058;28;20021;-67
2021/01/24 12:29:35;;;;;;;55.65;27.90;;;1.80;94.40;;;;;;5054379;28;20025;-67
2021/01/24 12:32:01;;;;;;;76.85;33.13;;;1.90;94.40;;;;;;5043053;28;20449;-67
2021/01/24 12:34:27;;;;;;;106.15;41.63;;;2.00;94.30;;;;;;5051745;28;20099;-67